createdAt,value
2023-04-26T00:02:27.414Z,62.02
2023-04-26T00:06:31.918Z,62.38
2023-04-26T00:10:34.954Z,62.34
2023-04-26T00:14:37.955Z,61.86
2023-04-26T00:18:41.211Z,62.19
2023-04-26T00:22:45.698Z,61.86
2023-04-26T00:26:48.819Z,61.91
2023-04-26T00:30:51.951Z,61.61
2023-04-26T00:34:55.056Z,61.31
2023-04-26T00:38:59.488Z,61.73
2023-04-26T00:43:04.216Z,61.94
2023-04-26T00:47:07.445Z,62.11
2023-04-26T00:51:10.869Z,61.97
2023-04-26T00:55:16.367Z,62.09
2023-04-26T00:59:21.241Z,62.25
2023-04-26T01:03:24.561Z,62.06
2023-04-26T01:07:27.875Z,62.18
2023-04-26T01:11:33.243Z,62.53
2023-04-26T01:15:37.077Z,62.03
2023-04-26T01:19:48.420Z,61.97
2023-04-26T01:52:42.925Z,61.94
2023-04-26T01:56:45.922Z,61.87
2023-04-26T02:00:49.004Z,61.20
2023-04-26T02:04:52.042Z,61.10
2023-04-26T02:08:57.024Z,61.45
2023-04-26T02:13:01.277Z,61.28
2023-04-26T02:17:06.386Z,61.47
2023-04-26T02:21:12.307Z,60.96
2023-04-26T02:25:16.898Z,61.07
2023-04-26T02:29:26.626Z,60.63
2023-04-26T02:33:39.326Z,60.74
2023-04-26T02:37:42.370Z,60.61
2023-04-26T02:41:46.982Z,60.83
2023-04-26T02:45:50.040Z,60.64
2023-04-26T02:49:53.095Z,60.83
2023-04-26T02:53:56.556Z,61.03
2023-04-26T02:58:02.520Z,61.00
2023-04-26T03:02:05.562Z,61.24
2023-04-26T03:06:09.294Z,61.20
2023-04-26T03:10:12.821Z,61.36
2023-04-26T03:14:18.297Z,61.31
2023-04-26T03:18:21.913Z,61.22
2023-04-26T03:22:25.895Z,61.05
2023-04-26T03:26:29.103Z,60.74
2023-04-26T03:30:34.145Z,60.89
2023-04-26T03:34:37.099Z,60.99
2023-04-26T03:38:40.665Z,61.19
2023-04-26T03:42:43.850Z,61.14
2023-04-26T03:46:48.404Z,61.14
2023-04-26T03:50:51.411Z,61.09
2023-04-26T03:54:54.709Z,61.32
2023-04-26T03:58:59.368Z,60.89
2023-04-26T04:03:05.104Z,60.91
2023-04-26T04:07:08.254Z,60.93
2023-04-26T04:11:11.497Z,61.26
2023-04-26T04:15:15.855Z,61.46
2023-04-26T04:19:23.773Z,61.62
2023-04-26T04:23:27.442Z,61.36
2023-04-26T04:27:30.594Z,61.42
2023-04-26T04:31:33.959Z,61.73
2023-04-26T04:35:38.515Z,61.47
2023-04-26T04:39:42.318Z,61.43
2023-04-26T04:43:45.690Z,61.80
2023-04-26T04:47:48.907Z,61.71
2023-04-26T04:51:53.474Z,61.58
2023-04-26T04:55:57.019Z,61.21
2023-04-26T05:00:07.025Z,61.13
2023-04-26T05:04:10.725Z,61.41
2023-04-26T05:08:16.023Z,60.74
2023-04-26T05:12:19.004Z,60.99
2023-04-26T05:16:22.851Z,60.92
2023-04-26T05:20:26.541Z,61.12
2023-04-26T05:24:33.765Z,60.92
2023-04-26T05:28:36.883Z,61.13
2023-04-26T05:32:57.175Z,61.14
2023-04-26T05:37:23.220Z,61.05
2023-04-26T05:41:27.624Z,60.77
2023-04-26T05:45:32.992Z,59.94
2023-04-26T05:49:37.046Z,59.29
2023-04-26T05:53:41.707Z,59.50
2023-04-26T05:57:46.404Z,59.15
2023-04-26T06:01:49.773Z,57.98
2023-04-26T06:05:53.448Z,58.72
2023-04-26T06:09:58.484Z,58.27
2023-04-26T06:14:02.954Z,58.41
2023-04-26T06:18:06.485Z,58.27
2023-04-26T06:22:09.653Z,57.15
2023-04-26T06:26:12.810Z,56.94
2023-04-26T06:30:17.818Z,56.69
2023-04-26T06:34:23.494Z,56.00
2023-04-26T06:38:26.761Z,55.65
2023-04-26T06:42:29.943Z,54.57
2023-04-26T06:46:50.554Z,53.61
2023-04-26T06:50:53.591Z,54.30
2023-04-26T06:54:57.737Z,54.06
2023-04-26T06:59:02.493Z,53.63
2023-04-26T07:03:07.107Z,54.01
2023-04-26T07:07:11.800Z,53.05
2023-04-26T07:11:16.198Z,53.28
2023-04-26T07:15:19.149Z,52.90
2023-04-26T07:19:23.583Z,52.37
2023-04-26T07:23:26.692Z,51.97
2023-04-26T07:27:29.870Z,51.86
2023-04-26T07:31:33.108Z,50.67
2023-04-26T07:35:37.578Z,49.33
2023-04-26T07:39:40.538Z,49.42
2023-04-26T07:43:43.615Z,49.97
2023-04-26T07:47:46.713Z,49.77
2023-04-26T07:51:52.559Z,48.50
2023-04-26T07:55:55.784Z,48.70
2023-04-26T07:59:59.329Z,49.72
2023-04-26T08:04:02.949Z,49.22
2023-04-26T08:08:07.660Z,48.73
2023-04-26T08:12:11.082Z,48.31
2023-04-26T08:16:14.273Z,47.80
2023-04-26T08:20:17.536Z,48.50
2023-04-26T08:24:21.979Z,48.86
2023-04-26T08:28:24.968Z,48.87
2023-04-26T08:32:28.130Z,48.02
2023-04-26T08:36:32.449Z,48.13
2023-04-26T08:40:37.756Z,47.04
2023-04-26T08:44:43.527Z,46.75
2023-04-26T08:48:50.742Z,45.87
2023-04-26T08:52:53.963Z,46.78
2023-04-26T08:57:00.441Z,46.51
2023-04-26T09:01:04.616Z,45.92
2023-04-26T09:05:09.417Z,47.22
2023-04-26T09:09:14.831Z,46.97
2023-04-26T09:13:19.313Z,46.97
2023-04-26T09:17:29.541Z,46.68
2023-04-26T09:21:32.753Z,46.21
2023-04-26T09:25:36.461Z,46.45
2023-04-26T09:29:40.990Z,46.15
2023-04-26T09:33:59.574Z,45.50
2023-04-26T09:38:10.903Z,44.83
2023-04-26T09:42:19.092Z,45.33
2023-04-26T09:46:25.299Z,45.09
2023-04-26T09:50:29.950Z,44.81
2023-04-26T09:54:40.969Z,45.04
2023-04-26T09:58:58.758Z,44.46
2023-04-26T10:03:04.148Z,44.36
2023-04-26T10:07:07.458Z,44.08
2023-04-26T10:11:12.060Z,45.13
2023-04-26T10:15:16.157Z,46.44
2023-04-26T10:19:21.188Z,46.75
2023-04-26T10:23:26.450Z,46.52
2023-04-26T10:27:51.107Z,46.69
2023-04-26T10:32:08.713Z,47.31
2023-04-26T10:36:14.728Z,46.63
2023-04-26T10:40:25.644Z,46.50
2023-04-26T10:44:50.146Z,46.56
2023-04-26T10:48:53.435Z,46.83
2023-04-26T10:53:10.180Z,46.86
2023-04-26T10:57:13.271Z,45.90
2023-04-26T11:01:18.508Z,45.83
2023-04-26T11:05:38.695Z,46.39
2023-04-26T11:09:50.261Z,45.36
2023-04-26T11:13:53.234Z,45.22
2023-04-26T11:17:56.329Z,45.99
2023-04-26T11:22:00.849Z,45.79
2023-04-26T11:26:08.380Z,46.26
2023-04-26T11:30:13.223Z,46.45
2023-04-26T11:34:16.677Z,45.88
2023-04-26T11:38:22.987Z,45.74
2023-04-26T11:42:27.487Z,45.97
2023-04-26T11:46:30.684Z,46.81
2023-04-26T11:50:35.460Z,46.16
2023-04-26T11:54:38.698Z,46.27
2023-04-26T11:58:45.765Z,46.75
2023-04-26T12:02:50.204Z,47.11
2023-04-26T12:06:53.701Z,46.12
2023-04-26T12:11:01.080Z,46.15
2023-04-26T12:15:12.628Z,46.14
2023-04-26T12:19:17.254Z,45.48
2023-04-26T12:23:20.533Z,46.25
2023-04-26T12:27:23.579Z,45.81
2023-04-26T12:31:28.291Z,44.45
2023-04-26T12:35:31.830Z,44.08
2023-04-26T12:39:34.872Z,44.70
2023-04-26T12:43:37.861Z,43.83
2023-04-26T12:47:42.440Z,43.95
2023-04-26T12:51:46.178Z,43.98
2023-04-26T12:55:49.483Z,44.36
2023-04-26T12:59:52.458Z,43.43
2023-04-26T13:03:59.872Z,42.75
2023-04-26T13:08:03.068Z,42.24
2023-04-26T13:12:06.658Z,41.78
2023-04-26T13:16:09.697Z,40.51
2023-04-26T13:20:14.723Z,41.76
2023-04-26T13:24:17.691Z,41.10
2023-04-26T13:28:20.805Z,40.36
2023-04-26T13:32:23.970Z,41.02
2023-04-26T13:36:29.355Z,41.95
2023-04-26T13:40:32.369Z,41.60
2023-04-26T13:44:38.136Z,41.26
2023-04-26T13:48:42.325Z,40.84
2023-04-26T13:52:47.084Z,41.84
2023-04-26T13:56:50.164Z,41.37
2023-04-26T14:00:53.457Z,41.62
2023-04-26T14:04:57.136Z,41.16
2023-04-26T14:09:02.034Z,41.48
2023-04-26T14:13:05.282Z,42.09
2023-04-26T14:17:08.385Z,42.03
2023-04-26T14:21:11.638Z,41.96
2023-04-26T14:25:16.854Z,42.60
2023-04-26T14:29:19.890Z,42.01
2023-04-26T14:33:24.933Z,42.02
2023-04-26T14:37:28.114Z,41.20
2023-04-26T14:41:32.669Z,41.37
2023-04-26T14:45:44.169Z,43.03
2023-04-26T14:49:48.075Z,42.91
2023-04-26T14:53:51.089Z,41.99
2023-04-26T14:57:55.664Z,41.54
2023-04-26T15:01:58.711Z,41.67
2023-04-26T15:06:02.265Z,42.22
2023-04-26T15:10:06.097Z,41.79
2023-04-26T15:14:10.718Z,41.37
2023-04-26T15:18:13.757Z,40.57
2023-04-26T15:22:16.896Z,40.32
2023-04-26T15:26:19.922Z,41.42
2023-04-26T15:30:24.398Z,42.60
2023-04-26T15:34:29.958Z,42.91
2023-04-26T15:38:34.930Z,43.07
2023-04-26T15:42:37.938Z,43.73
2023-04-26T15:46:42.564Z,43.55
2023-04-26T15:50:45.602Z,43.20
2023-04-26T15:54:48.706Z,43.09
2023-04-26T15:58:51.679Z,43.41
2023-04-26T16:02:56.936Z,42.85
2023-04-26T16:07:00.516Z,42.97
2023-04-26T16:11:04.574Z,43.25
2023-04-26T16:15:09.409Z,42.98
2023-04-26T16:19:13.846Z,42.89
2023-04-26T16:23:18.160Z,43.38
2023-04-26T16:27:22.395Z,43.34
2023-04-26T16:31:26.301Z,43.44
2023-04-26T16:35:30.916Z,43.47
2023-04-26T16:39:34.607Z,43.76
2023-04-26T16:43:37.687Z,44.53
2023-04-26T16:47:41.174Z,44.26
2023-04-26T16:51:51.410Z,44.17
2023-04-26T16:55:54.510Z,44.22
2023-04-26T16:59:57.628Z,44.30
2023-04-26T17:04:00.751Z,44.30
2023-04-26T17:08:06.495Z,44.71
2023-04-26T17:12:09.727Z,45.31
2023-04-26T17:16:12.885Z,45.59
2023-04-26T17:20:16.737Z,45.36
2023-04-26T17:24:21.485Z,44.79
2023-04-26T17:28:24.581Z,44.43
2023-04-26T17:32:28.095Z,44.94
2023-04-26T17:36:31.883Z,45.39
2023-04-26T17:40:36.378Z,45.86
2023-04-26T17:44:39.341Z,45.72
2023-04-26T17:48:42.429Z,45.32
2023-04-26T17:52:45.643Z,45.46
2023-04-26T17:56:50.298Z,45.43
2023-04-26T18:00:54.141Z,45.68
2023-04-26T18:04:57.486Z,45.99
2023-04-26T18:09:00.878Z,46.17
2023-04-26T18:13:05.697Z,46.17
2023-04-26T18:17:08.776Z,46.07
2023-04-26T18:21:12.324Z,46.21
2023-04-26T18:25:15.523Z,46.45
2023-04-26T18:29:19.997Z,46.45
2023-04-26T18:33:23.045Z,46.58
2023-04-26T18:37:26.363Z,46.74
2023-04-26T18:41:29.373Z,47.02
2023-04-26T18:45:33.962Z,47.39
2023-04-26T18:49:36.967Z,47.28
2023-04-26T18:53:40.139Z,47.78
2023-04-26T18:57:43.081Z,47.33
2023-04-26T19:01:49.242Z,47.60
2023-04-26T19:05:52.413Z,47.93
2023-04-26T19:09:59.633Z,47.73
2023-04-26T19:14:03.398Z,47.76
2023-04-26T19:18:08.039Z,48.07
2023-04-26T19:22:11.162Z,48.50
2023-04-26T19:26:14.423Z,49.14
2023-04-26T19:30:17.413Z,49.01
2023-04-26T19:34:22.290Z,49.08
2023-04-26T19:38:25.998Z,49.36
2023-04-26T19:42:29.077Z,49.44
2023-04-26T19:46:32.111Z,49.39
2023-04-26T19:50:41.233Z,49.55
2023-04-26T19:54:44.244Z,49.65
2023-04-26T19:58:47.287Z,49.77
2023-04-26T20:02:50.789Z,49.96
2023-04-26T20:06:55.471Z,49.70
2023-04-26T20:11:02.354Z,50.49
2023-04-26T20:15:07.386Z,50.36
2023-04-26T20:19:10.700Z,50.39
2023-04-26T20:23:15.151Z,50.50
2023-04-26T20:27:18.121Z,50.42
2023-04-26T20:31:21.233Z,50.43
2023-04-26T20:35:24.239Z,50.74
2023-04-26T20:39:29.610Z,50.87
2023-04-26T20:43:32.965Z,50.78
2023-04-26T20:47:36.834Z,51.07
2023-04-26T20:51:39.812Z,51.22
2023-04-26T20:55:44.225Z,51.29
2023-04-26T20:59:47.189Z,51.45
2023-04-26T21:03:50.387Z,51.35
2023-04-26T21:07:53.480Z,51.45
2023-04-26T21:11:58.112Z,51.61
2023-04-26T21:16:02.335Z,51.48
2023-04-26T21:20:06.879Z,51.62
2023-04-26T21:24:09.852Z,51.69
2023-04-26T21:28:14.330Z,51.86
2023-04-26T21:32:17.284Z,51.92
2023-04-26T21:36:20.443Z,52.34
2023-04-26T21:40:23.547Z,52.34
2023-04-26T21:44:28.132Z,52.63
2023-04-26T21:48:31.138Z,52.43
2023-04-26T21:52:34.369Z,52.64
2023-04-26T21:56:37.373Z,52.52
2023-04-26T22:00:42.333Z,52.85
2023-04-26T22:04:45.368Z,52.35
2023-04-26T22:08:48.450Z,52.42
2023-04-26T22:12:51.720Z,53.09
2023-04-26T22:16:56.405Z,52.99
2023-04-26T22:20:59.494Z,53.16
2023-04-26T22:25:02.707Z,53.50
2023-04-26T22:29:05.718Z,53.62
2023-04-26T22:33:12.204Z,54.02
2023-04-26T22:37:21.101Z,54.14
2023-04-26T22:41:24.764Z,53.82
2023-04-26T22:45:27.845Z,53.15
2023-04-26T22:49:32.292Z,53.48
2023-04-26T22:53:35.302Z,53.99
2023-04-26T22:57:38.627Z,53.48
2023-04-26T23:01:41.659Z,53.94
2023-04-26T23:05:47.259Z,54.02
2023-04-26T23:09:50.308Z,54.14
2023-04-26T23:13:54.804Z,54.16
2023-04-26T23:17:57.845Z,54.15
2023-04-26T23:22:02.500Z,54.40
2023-04-26T23:26:08.350Z,54.70
2023-04-26T23:30:13.902Z,54.91
2023-04-26T23:34:16.889Z,55.12
2023-04-26T23:38:21.342Z,55.18
2023-04-26T23:42:24.333Z,55.17
2023-04-26T23:46:27.440Z,54.99
2023-04-26T23:50:30.689Z,55.36
2023-04-26T23:54:35.124Z,55.32
2023-04-26T23:58:38.145Z,55.25
